createdAt,value
2022-09-07T00:01:19.455Z,55.59
2022-09-07T00:03:47.900Z,55.73
2022-09-07T00:06:16.178Z,55.68
2022-09-07T00:08:44.597Z,55.64
2022-09-07T00:11:16.212Z,55.29
2022-09-07T00:13:47.013Z,55.76
2022-09-07T00:16:18.834Z,55.79
2022-09-07T00:18:48.092Z,55.76
2022-09-07T00:21:18.160Z,55.80
2022-09-07T00:23:49.292Z,55.59
2022-09-07T00:26:21.261Z,55.50
2022-09-07T00:28:50.409Z,55.67
2022-09-07T00:31:21.534Z,55.79
2022-09-07T00:33:51.454Z,56.00
2022-09-07T00:36:21.366Z,56.08
2022-09-07T00:38:49.536Z,56.00
2022-09-07T00:41:19.667Z,55.95
2022-09-07T00:43:50.734Z,55.87
2022-09-07T00:46:22.722Z,55.88
2022-09-07T00:49:08.357Z,55.99
2022-09-07T00:52:00.084Z,56.10
2022-09-07T00:54:36.662Z,56.52
2022-09-07T00:57:05.974Z,56.69
2022-09-07T00:59:45.216Z,56.55
2022-09-07T01:02:15.940Z,56.54
2022-09-07T01:04:48.578Z,56.64
2022-09-07T01:07:17.508Z,56.62
2022-09-07T01:09:47.472Z,56.57
2022-09-07T01:12:15.729Z,56.41
2022-09-07T01:14:47.522Z,56.73
2022-09-07T01:17:26.274Z,56.62
2022-09-07T01:20:20.978Z,56.65
2022-09-07T01:23:30.587Z,56.74
2022-09-07T01:26:05.071Z,56.94
2022-09-07T01:28:35.611Z,56.74
2022-09-07T01:31:13.927Z,56.77
2022-09-07T01:33:42.265Z,56.78
2022-09-07T01:36:34.131Z,56.78
2022-09-07T01:39:05.040Z,56.82
2022-09-07T01:42:07.276Z,56.81
2022-09-07T01:44:55.448Z,57.11
2022-09-07T01:47:27.513Z,56.85
2022-09-07T01:50:05.362Z,57.02
2022-09-07T01:52:43.594Z,56.96
2022-09-07T01:55:50.122Z,57.04
2022-09-07T01:58:26.933Z,57.14
2022-09-07T02:01:02.053Z,57.25
2022-09-07T02:03:42.589Z,57.02
2022-09-07T02:06:27.383Z,57.17
2022-09-07T02:09:07.635Z,57.23
2022-09-07T02:11:39.758Z,57.08
2022-09-07T02:14:31.346Z,57.09
2022-09-07T02:17:11.229Z,57.08
2022-09-07T02:19:45.398Z,57.47
2022-09-07T02:22:20.441Z,57.35
2022-09-07T02:24:53.200Z,57.29
2022-09-07T02:27:50.384Z,57.25
2022-09-07T02:30:18.810Z,57.41
2022-09-07T02:32:47.119Z,57.42
2022-09-07T02:35:15.735Z,57.42
2022-09-07T02:37:45.721Z,57.24
2022-09-07T02:40:14.988Z,57.26
2022-09-07T02:42:47.575Z,57.39
2022-09-07T02:45:17.041Z,57.46
2022-09-07T02:48:15.004Z,57.22
2022-09-07T02:51:24.162Z,57.31
2022-09-07T02:54:14.169Z,57.27
2022-09-07T02:57:17.999Z,57.18
2022-09-07T03:00:07.561Z,57.22
2022-09-07T03:02:45.683Z,57.36
2022-09-07T03:05:42.865Z,57.69
2022-09-07T03:08:16.226Z,57.47
2022-09-07T03:10:45.297Z,57.68
2022-09-07T03:13:28.205Z,57.94
2022-09-07T03:15:57.732Z,57.73
2022-09-07T03:18:27.534Z,57.77
2022-09-07T03:20:56.055Z,58.05
2022-09-07T03:23:25.015Z,58.06
2022-09-07T03:25:53.303Z,58.12
2022-09-07T03:28:21.580Z,57.78
2022-09-07T03:30:50.231Z,57.84
2022-09-07T03:33:18.531Z,57.85
2022-09-07T03:35:58.327Z,57.85
2022-09-07T03:38:26.658Z,57.81
2022-09-07T03:41:02.444Z,57.79
2022-09-07T03:43:31.313Z,57.53
2022-09-07T03:46:05.930Z,57.46
2022-09-07T03:48:35.443Z,57.63
2022-09-07T03:51:06.734Z,57.79
2022-09-07T03:53:39.878Z,57.71
2022-09-07T03:56:11.269Z,57.82
2022-09-07T03:58:39.715Z,57.94
2022-09-07T04:01:11.582Z,57.86
2022-09-07T04:03:40.021Z,58.19
2022-09-07T04:06:08.749Z,58.06
2022-09-07T04:08:38.324Z,58.13
2022-09-07T04:11:07.450Z,58.13
2022-09-07T04:13:36.842Z,58.49
2022-09-07T04:16:12.566Z,58.20
2022-09-07T04:18:41.753Z,58.50
2022-09-07T04:21:10.542Z,58.65
2022-09-07T04:23:43.821Z,58.62
2022-09-07T04:26:21.657Z,58.35
2022-09-07T04:28:51.117Z,58.48
2022-09-07T04:31:20.369Z,58.65
2022-09-07T04:33:49.997Z,58.59
2022-09-07T04:36:19.998Z,58.53
2022-09-07T04:38:57.977Z,58.46
2022-09-07T04:41:28.192Z,58.58
2022-09-07T04:43:59.033Z,58.70
2022-09-07T04:46:30.246Z,58.45
2022-09-07T04:49:00.840Z,58.55
2022-09-07T04:51:30.909Z,58.67
2022-09-07T04:54:02.030Z,58.61
2022-09-07T04:56:32.131Z,58.60
2022-09-07T04:59:02.212Z,58.53
2022-09-07T05:01:31.396Z,58.75
2022-09-07T05:04:01.447Z,58.67
2022-09-07T05:06:29.995Z,58.85
2022-09-07T05:08:58.965Z,59.09
2022-09-07T05:11:29.717Z,59.25
2022-09-07T05:14:00.005Z,59.21
2022-09-07T05:16:28.517Z,59.00
2022-09-07T05:19:02.253Z,59.28
2022-09-07T05:21:33.940Z,59.34
2022-09-07T05:24:03.150Z,59.30
2022-09-07T05:26:34.135Z,59.22
2022-09-07T05:31:54.936Z,59.36
2022-09-07T05:34:31.576Z,59.30
2022-09-07T05:37:01.387Z,59.40
2022-09-07T05:39:31.061Z,59.15
2022-09-07T05:41:59.434Z,59.24
2022-09-07T05:47:11.307Z,59.46
2022-09-07T05:49:39.725Z,59.25
2022-09-07T05:52:08.259Z,59.32
2022-09-07T05:54:38.345Z,59.61
2022-09-07T05:57:13.689Z,59.67
2022-09-07T05:59:42.142Z,59.70
2022-09-07T06:02:17.726Z,59.54
2022-09-07T06:04:46.127Z,59.49
2022-09-07T06:07:22.965Z,59.60
2022-09-07T06:12:41.701Z,59.57
2022-09-07T06:15:11.835Z,59.46
2022-09-07T06:17:40.444Z,59.61
2022-09-07T06:20:09.486Z,59.37
2022-09-07T06:22:38.368Z,59.40
2022-09-07T06:25:06.984Z,59.19
2022-09-07T06:27:35.423Z,59.39
2022-09-07T06:30:04.752Z,59.50
2022-09-07T06:32:44.635Z,59.13
2022-09-07T06:35:14.999Z,59.17
2022-09-07T06:37:43.184Z,59.14
2022-09-07T06:40:12.409Z,59.26
2022-09-07T06:42:40.866Z,59.09
2022-09-07T06:45:11.631Z,58.97
2022-09-07T06:47:41.111Z,58.72
2022-09-07T06:50:10.303Z,59.00
2022-09-07T06:55:31.124Z,58.76
2022-09-07T06:57:59.370Z,58.58
2022-09-07T07:00:27.743Z,58.43
2022-09-07T07:02:56.289Z,58.23
2022-09-07T07:05:24.662Z,58.36
2022-09-07T07:07:53.016Z,57.93
2022-09-07T07:10:24.752Z,57.92
2022-09-07T07:12:57.825Z,57.91
2022-09-07T07:15:28.416Z,57.91
2022-09-07T07:18:02.556Z,57.77
2022-09-07T07:20:39.864Z,57.64
2022-09-07T07:23:08.793Z,57.35
2022-09-07T07:25:37.553Z,57.19
2022-09-07T07:30:56.440Z,56.87
2022-09-07T07:33:25.415Z,56.45
2022-09-07T07:35:53.692Z,56.18
2022-09-07T07:44:00.621Z,55.44
2022-09-07T07:46:30.484Z,55.20
2022-09-07T07:48:59.194Z,55.02
2022-09-07T07:51:27.605Z,54.80
2022-09-07T07:53:56.828Z,54.61
2022-09-07T07:56:25.370Z,54.18
2022-09-07T07:58:53.749Z,54.07
2022-09-07T08:01:22.140Z,54.02
2022-09-07T08:03:51.064Z,53.89
2022-09-07T08:06:21.853Z,53.86
2022-09-07T08:08:50.137Z,53.80
2022-09-07T08:11:20.908Z,53.59
2022-09-07T08:13:51.177Z,53.42
2022-09-07T08:16:19.811Z,53.31
2022-09-07T08:18:49.372Z,53.34
2022-09-07T08:21:17.799Z,53.08
2022-09-07T08:23:46.116Z,52.71
2022-09-07T08:26:14.371Z,52.64
2022-09-07T08:28:45.641Z,52.21
2022-09-07T08:31:16.383Z,52.17
2022-09-07T08:33:45.744Z,51.96
2022-09-07T08:36:19.391Z,51.90
2022-09-07T08:38:48.434Z,51.40
2022-09-07T08:41:46.651Z,51.38
2022-09-07T08:44:29.997Z,51.27
2022-09-07T08:47:07.078Z,50.62
2022-09-07T08:49:47.386Z,50.57
2022-09-07T08:52:27.840Z,50.56
2022-09-07T08:55:28.152Z,50.56
2022-09-07T08:58:02.192Z,50.24
2022-09-07T09:00:31.679Z,49.72
2022-09-07T09:05:53.802Z,49.47
2022-09-07T09:08:48.174Z,49.48
2022-09-07T09:11:27.564Z,48.99
2022-09-07T09:13:55.820Z,48.87
2022-09-07T09:16:27.063Z,48.73
2022-09-07T09:18:55.260Z,48.75
2022-09-07T09:21:23.683Z,48.27
2022-09-07T09:23:55.407Z,48.18
2022-09-07T09:26:26.165Z,47.73
2022-09-07T09:28:55.366Z,47.48
2022-09-07T09:31:36.277Z,47.56
2022-09-07T09:34:15.161Z,47.20
2022-09-07T09:36:56.419Z,47.26
2022-09-07T09:39:31.093Z,46.74
2022-09-07T09:42:15.822Z,46.85
2022-09-07T09:44:45.707Z,46.82
2022-09-07T09:47:40.749Z,46.66
2022-09-07T09:53:49.225Z,46.52
2022-09-07T09:56:18.329Z,46.54
2022-09-07T10:01:36.866Z,46.18
2022-09-07T10:04:24.775Z,46.21
2022-09-07T10:07:22.760Z,45.68
2022-09-07T10:09:53.263Z,45.79
2022-09-07T10:12:34.778Z,45.68
2022-09-07T10:15:07.023Z,45.43
2022-09-07T10:17:43.861Z,45.22
2022-09-07T10:20:15.996Z,45.07
2022-09-07T10:22:51.304Z,44.84
2022-09-07T10:25:38.101Z,44.93
2022-09-07T10:28:13.024Z,44.64
2022-09-07T10:31:02.572Z,44.69
2022-09-07T10:37:22.150Z,43.44
2022-09-07T10:40:10.076Z,43.45
2022-09-07T10:45:45.786Z,43.77
2022-09-07T10:48:20.872Z,43.66
2022-09-07T10:50:57.400Z,43.39
2022-09-07T10:53:42.066Z,43.33
2022-09-07T10:56:15.626Z,43.00
2022-09-07T10:59:03.059Z,42.77
2022-09-07T11:01:40.878Z,42.79
2022-09-07T11:04:37.228Z,42.45
2022-09-07T11:07:15.901Z,42.31
2022-09-07T11:10:30.241Z,42.24
2022-09-07T11:13:04.907Z,42.04
2022-09-07T11:15:43.174Z,41.90
2022-09-07T11:18:41.349Z,41.85
2022-09-07T11:21:56.271Z,40.84
2022-09-07T11:24:19.674Z,41.52
2022-09-07T11:27:14.500Z,41.00
2022-09-07T11:29:55.486Z,39.84
2022-09-07T11:32:31.557Z,40.59
2022-09-07T11:35:25.253Z,40.17
2022-09-07T11:37:59.684Z,39.68
2022-09-07T11:40:30.864Z,40.31
2022-09-07T11:43:22.741Z,40.31
2022-09-07T11:46:21.466Z,40.58
2022-09-07T11:48:55.001Z,40.76
2022-09-07T11:51:53.731Z,40.28
2022-09-07T11:54:42.480Z,40.51
2022-09-07T11:57:46.394Z,40.26
2022-09-07T12:00:21.893Z,39.77
2022-09-07T12:03:04.582Z,39.95
2022-09-07T12:05:44.819Z,40.00
2022-09-07T12:08:30.009Z,40.03
2022-09-07T12:11:10.328Z,40.09
2022-09-07T12:13:57.157Z,39.62
2022-09-07T12:17:02.243Z,39.68
2022-09-07T12:19:30.832Z,39.13
2022-09-07T12:22:00.051Z,39.48
2022-09-07T12:24:43.425Z,39.05
2022-09-07T12:27:20.628Z,39.60
2022-09-07T12:30:09.862Z,39.15
2022-09-07T12:32:55.826Z,38.64
2022-09-07T12:35:31.728Z,38.61
2022-09-07T12:38:01.735Z,38.69
2022-09-07T12:40:30.002Z,38.76
2022-09-07T12:43:13.295Z,38.29
2022-09-07T12:45:42.216Z,36.76
2022-09-07T12:48:16.263Z,37.86
2022-09-07T12:51:12.360Z,38.18
2022-09-07T12:54:08.699Z,37.91
2022-09-07T12:56:43.119Z,36.19
2022-09-07T12:59:32.852Z,37.28
2022-09-07T13:02:27.919Z,37.10
2022-09-07T13:05:34.880Z,35.57
2022-09-07T13:08:40.623Z,36.98
2022-09-07T13:11:38.341Z,37.38
2022-09-07T13:14:17.362Z,35.76
2022-09-07T13:19:52.067Z,36.16
2022-09-07T13:22:32.392Z,35.75
2022-09-07T13:25:27.308Z,35.73
2022-09-07T13:28:14.224Z,35.88
2022-09-07T13:31:01.194Z,35.29
2022-09-07T13:33:29.782Z,36.26
2022-09-07T13:36:40.381Z,36.70
2022-09-07T13:39:15.355Z,36.73
2022-09-07T13:41:50.541Z,36.71
2022-09-07T13:44:39.237Z,36.92
2022-09-07T13:47:35.002Z,37.06
2022-09-07T13:50:12.258Z,37.46
2022-09-07T13:53:12.396Z,37.33
2022-09-07T13:56:15.820Z,36.52
2022-09-07T13:58:49.908Z,36.50
2022-09-07T14:01:29.140Z,35.70
2022-09-07T14:04:07.804Z,35.50
2022-09-07T14:06:38.085Z,36.14
2022-09-07T14:09:13.632Z,36.33
2022-09-07T14:11:46.423Z,36.18
2022-09-07T14:14:33.353Z,35.99
2022-09-07T14:17:01.931Z,35.36
2022-09-07T14:19:49.526Z,35.51
2022-09-07T14:22:26.250Z,35.42
2022-09-07T14:24:59.735Z,35.89
2022-09-07T14:27:42.443Z,35.74
2022-09-07T14:30:23.436Z,35.94
2022-09-07T14:33:20.434Z,36.29
2022-09-07T14:35:49.986Z,35.90
2022-09-07T14:41:15.698Z,36.59
2022-09-07T14:43:55.507Z,36.42
2022-09-07T14:46:26.136Z,36.03
2022-09-07T14:48:59.880Z,36.68
2022-09-07T14:51:36.174Z,36.47
2022-09-07T14:54:07.188Z,36.44
2022-09-07T14:56:41.094Z,35.85
2022-09-07T14:59:34.960Z,36.63
2022-09-07T15:02:18.589Z,36.36
2022-09-07T15:05:08.212Z,36.16
2022-09-07T15:07:47.168Z,36.19
2022-09-07T15:10:16.658Z,35.95
2022-09-07T15:12:44.989Z,35.92
2022-09-07T15:15:21.860Z,35.80
2022-09-07T15:17:51.828Z,36.07
2022-09-07T15:20:37.873Z,36.05
2022-09-07T15:23:17.110Z,36.06
2022-09-07T15:25:51.871Z,36.11
2022-09-07T15:34:02.375Z,36.07
2022-09-07T15:36:31.948Z,35.74
2022-09-07T15:39:01.099Z,35.81
2022-09-07T15:41:30.311Z,35.67
2022-09-07T15:43:59.081Z,36.15
2022-09-07T15:46:27.622Z,36.40
2022-09-07T15:48:56.394Z,36.05
2022-09-07T15:54:14.844Z,36.20
2022-09-07T15:57:47.661Z,36.18
2022-09-07T15:59:32.457Z,36.33
2022-09-07T16:02:00.995Z,35.94
2022-09-07T16:04:29.662Z,36.04
2022-09-07T16:07:01.997Z,36.15
2022-09-07T16:09:30.320Z,36.18
2022-09-07T16:12:59.931Z,36.35
2022-09-07T16:14:47.344Z,36.22
2022-09-07T16:20:04.678Z,36.54
2022-09-07T16:25:22.873Z,36.62
2022-09-07T16:27:51.173Z,36.74
2022-09-07T16:30:19.385Z,36.49
2022-09-07T16:32:48.290Z,36.93
2022-09-07T16:35:17.509Z,37.12
2022-09-07T16:40:34.234Z,37.05
2022-09-07T16:43:02.449Z,37.19
2022-09-07T16:48:20.229Z,37.11
2022-09-07T16:51:00.448Z,37.34
2022-09-07T16:53:34.662Z,37.53
2022-09-07T16:56:05.296Z,37.66
2022-09-07T16:58:36.421Z,37.68
2022-09-07T17:01:06.945Z,37.79
2022-09-07T17:03:36.876Z,37.99
2022-09-07T17:06:07.803Z,37.90
2022-09-07T17:08:37.832Z,37.98
2022-09-07T17:11:15.949Z,38.15
2022-09-07T17:13:45.407Z,38.11
2022-09-07T17:16:15.374Z,38.13
2022-09-07T17:21:33.982Z,38.29
2022-09-07T17:24:04.207Z,38.52
2022-09-07T17:26:33.203Z,38.81
2022-09-07T17:29:01.567Z,38.72
2022-09-07T17:34:21.609Z,38.78
2022-09-07T17:36:51.338Z,38.80
2022-09-07T17:39:20.104Z,38.94
2022-09-07T17:41:52.695Z,39.00
2022-09-07T17:44:23.461Z,39.43
2022-09-07T17:46:52.049Z,39.80
2022-09-07T17:49:20.346Z,39.85
2022-09-07T17:51:48.808Z,39.45
2022-09-07T17:54:17.859Z,39.36
2022-09-07T17:56:46.507Z,39.25
2022-09-07T18:02:03.557Z,39.33
2022-09-07T18:04:31.952Z,39.26
2022-09-07T18:07:00.249Z,39.07
2022-09-07T18:09:28.801Z,39.21
2022-09-07T18:11:57.277Z,39.28
2022-09-07T18:14:25.641Z,39.39
2022-09-07T18:16:54.153Z,39.39
2022-09-07T18:19:24.909Z,39.53
2022-09-07T18:21:58.467Z,39.46
2022-09-07T18:24:27.975Z,39.24
2022-09-07T18:27:07.848Z,39.32
2022-09-07T18:29:36.488Z,39.39
2022-09-07T18:32:09.364Z,39.74
2022-09-07T18:34:41.157Z,39.73
2022-09-07T18:37:12.312Z,39.85
2022-09-07T18:39:41.336Z,39.86
2022-09-07T18:42:10.275Z,39.87
2022-09-07T18:47:29.222Z,40.05
2022-09-07T18:49:58.692Z,40.25
2022-09-07T18:55:16.466Z,39.99
2022-09-07T18:57:45.170Z,40.13
2022-09-07T19:00:14.601Z,40.30
2022-09-07T19:02:42.844Z,40.52
2022-09-07T19:08:00.031Z,41.64
2022-09-07T19:10:28.303Z,42.16
2022-09-07T19:12:56.872Z,42.74
2022-09-07T19:15:25.670Z,42.83
2022-09-07T19:17:54.102Z,42.97
2022-09-07T19:20:22.455Z,42.80
2022-09-07T19:22:50.950Z,43.03
2022-09-07T19:25:19.584Z,43.10
2022-09-07T19:27:48.051Z,43.25
2022-09-07T19:30:18.043Z,42.88
2022-09-07T19:32:46.434Z,42.88
2022-09-07T19:35:17.942Z,43.10
2022-09-07T19:37:48.447Z,43.36
2022-09-07T19:40:19.267Z,43.12
2022-09-07T19:42:48.197Z,43.13
2022-09-07T19:45:16.768Z,42.30
2022-09-07T19:47:45.078Z,42.81
2022-09-07T19:50:13.414Z,43.06
2022-09-07T19:52:41.971Z,43.46
2022-09-07T19:55:10.361Z,44.36
2022-09-07T19:57:38.729Z,44.60
2022-09-07T20:00:07.914Z,44.62
2022-09-07T20:02:39.090Z,44.37
2022-09-07T20:05:10.150Z,43.83
2022-09-07T20:07:52.486Z,44.03
2022-09-07T20:10:20.883Z,44.07
2022-09-07T20:12:49.349Z,43.65
2022-09-07T20:15:17.677Z,43.41
2022-09-07T20:17:47.520Z,43.19
2022-09-07T20:20:18.353Z,42.84
2022-09-07T20:22:47.299Z,41.79
2022-09-07T20:25:15.733Z,41.31
2022-09-07T20:27:44.697Z,41.59
2022-09-07T20:30:13.440Z,42.00
2022-09-07T20:32:44.406Z,41.81
2022-09-07T20:35:14.092Z,41.84
2022-09-07T20:37:44.149Z,41.45
2022-09-07T20:40:12.534Z,41.69
2022-09-07T20:42:40.941Z,41.87
2022-09-07T20:45:09.769Z,41.55
2022-09-07T20:47:38.193Z,41.56
2022-09-07T20:50:06.862Z,41.38
2022-09-07T20:52:35.157Z,41.52
2022-09-07T20:55:03.655Z,41.62
2022-09-07T20:57:31.999Z,41.39
2022-09-07T21:00:00.271Z,41.92
2022-09-07T21:02:28.556Z,41.71
2022-09-07T21:04:56.934Z,41.54
2022-09-07T21:07:25.204Z,41.67
2022-09-07T21:09:53.435Z,41.99
2022-09-07T21:12:24.519Z,42.23
2022-09-07T21:14:52.856Z,41.89
2022-09-07T21:17:21.285Z,41.26
2022-09-07T21:19:49.591Z,41.33
2022-09-07T21:22:17.969Z,40.96
2022-09-07T21:24:46.274Z,40.85
2022-09-07T21:27:14.579Z,40.83
2022-09-07T21:29:42.900Z,41.24
2022-09-07T21:32:11.104Z,41.42
2022-09-07T21:34:39.409Z,41.45
2022-09-07T21:37:07.699Z,41.63
2022-09-07T21:39:36.010Z,41.63
2022-09-07T21:42:04.735Z,41.68
2022-09-07T21:44:33.043Z,42.14
2022-09-07T21:47:01.312Z,42.47
2022-09-07T21:49:29.696Z,42.26
2022-09-07T21:51:57.982Z,42.36
2022-09-07T21:54:26.249Z,42.44
2022-09-07T21:56:54.927Z,42.17
2022-09-07T21:59:23.269Z,42.16
2022-09-07T22:01:51.537Z,42.55
2022-09-07T22:04:19.916Z,41.92
2022-09-07T22:06:48.306Z,41.50
2022-09-07T22:09:16.841Z,41.70
2022-09-07T22:11:46.141Z,41.77
2022-09-07T22:14:15.954Z,41.82
2022-09-07T22:16:44.498Z,42.11
2022-09-07T22:19:13.258Z,42.50
2022-09-07T22:21:41.589Z,42.63
2022-09-07T22:24:11.868Z,42.63
2022-09-07T22:26:40.119Z,42.25
2022-09-07T22:29:11.842Z,42.67
2022-09-07T22:31:41.543Z,42.55
2022-09-07T22:34:10.707Z,42.74
2022-09-07T22:36:42.256Z,42.76
2022-09-07T22:39:17.088Z,42.78
2022-09-07T22:41:47.437Z,42.85
2022-09-07T22:44:18.504Z,42.87
2022-09-07T22:46:48.356Z,42.89
2022-09-07T22:49:17.731Z,42.92
2022-09-07T22:51:46.423Z,43.07
2022-09-07T22:54:14.865Z,43.01
2022-09-07T22:56:43.395Z,43.10
2022-09-07T22:59:12.909Z,43.15
2022-09-07T23:01:41.909Z,43.35
2022-09-07T23:04:11.340Z,43.48
2022-09-07T23:06:42.068Z,43.58
2022-09-07T23:09:14.086Z,43.71
2022-09-07T23:11:43.404Z,43.96
2022-09-07T23:14:15.352Z,44.36
2022-09-07T23:16:44.684Z,45.16
2022-09-07T23:19:14.276Z,45.48
2022-09-07T23:21:43.443Z,45.26
2022-09-07T23:24:13.640Z,45.40
2022-09-07T23:26:42.695Z,45.74
2022-09-07T23:29:12.978Z,45.91
2022-09-07T23:31:42.188Z,46.09
2022-09-07T23:34:10.474Z,46.17
2022-09-07T23:36:38.977Z,46.39
2022-09-07T23:39:07.649Z,46.48
2022-09-07T23:41:35.805Z,46.62
2022-09-07T23:44:04.094Z,46.68
2022-09-07T23:46:32.407Z,46.68
2022-09-07T23:49:00.678Z,46.98
2022-09-07T23:51:28.887Z,47.19
2022-09-07T23:53:57.739Z,47.20
2022-09-07T23:56:26.398Z,47.27
2022-09-07T23:58:54.657Z,47.48
